sensor_id;sensor_type;location;lat;lon;timestamp;P1;durP1;ratioP1;P2;durP2;ratioP2
12768;SDS011;6448;48.916;8.990;2023-03-31T00:00:44;1.60;;;1.20;;
12768;SDS011;6448;48.916;8.990;2023-03-31T00:01:46;1.30;;;1.02;;
12768;SDS011;6448;48.916;8.990;2023-03-31T00:02:47;1.45;;;1.10;;
12768;SDS011;6448;48.916;8.990;2023-03-31T00:03:49;1.35;;;1.10;;
12768;SDS011;6448;48.916;8.990;2023-03-31T00:04:50;1.20;;;1.02;;
12768;SDS011;6448;48.916;8.990;2023-03-31T00:05:55;1.30;;;1.10;;
12768;SDS011;6448;48.916;8.990;2023-03-31T00:06:57;2.28;;;1.10;;
12768;SDS011;6448;48.916;8.990;2023-03-31T00:07:59;1.70;;;1.10;;
12768;SDS011;6448;48.916;8.990;2023-03-31T00:09:00;1.80;;;1.35;;
12768;SDS011;6448;48.916;8.990;2023-03-31T00:10:03;1.70;;;1.30;;
12768;SDS011;6448;48.916;8.990;2023-03-31T00:11:05;1.20;;;1.10;;
12768;SDS011;6448;48.916;8.990;2023-03-31T00:12:07;1.63;;;1.00;;
12768;SDS011;6448;48.916;8.990;2023-03-31T00:13:08;1.57;;;1.20;;
12768;SDS011;6448;48.916;8.990;2023-03-31T00:14:10;1.67;;;1.30;;
12768;SDS011;6448;48.916;8.990;2023-03-31T00:15:12;2.05;;;1.40;;
12768;SDS011;6448;48.916;8.990;2023-03-31T00:16:13;1.95;;;1.20;;
12768;SDS011;6448;48.916;8.990;2023-03-31T00:17:15;1.77;;;1.25;;
12768;SDS011;6448;48.916;8.990;2023-03-31T00:18:16;1.40;;;1.10;;
12768;SDS011;6448;48.916;8.990;2023-03-31T00:19:17;1.52;;;1.30;;
12768;SDS011;6448;48.916;8.990;2023-03-31T00:20:19;2.10;;;1.40;;
12768;SDS011;6448;48.916;8.990;2023-03-31T00:21:22;1.60;;;1.10;;
12768;SDS011;6448;48.916;8.990;2023-03-31T00:22:23;1.27;;;1.10;;
12768;SDS011;6448;48.916;8.990;2023-03-31T00:23:26;1.58;;;1.10;;
12768;SDS011;6448;48.916;8.990;2023-03-31T00:24:27;2.03;;;1.20;;
12768;SDS011;6448;48.916;8.990;2023-03-31T00:25:33;1.63;;;1.20;;
12768;SDS011;6448;48.916;8.990;2023-03-31T00:26:33;1.58;;;1.20;;
12768;SDS011;6448;48.916;8.990;2023-03-31T00:27:36;1.30;;;1.10;;
12768;SDS011;6448;48.916;8.990;2023-03-31T00:28:37;1.48;;;1.23;;
12768;SDS011;6448;48.916;8.990;2023-03-31T00:29:38;1.30;;;1.10;;
12768;SDS011;6448;48.916;8.990;2023-03-31T00:30:40;1.98;;;1.33;;
12768;SDS011;6448;48.916;8.990;2023-03-31T00:31:42;2.08;;;1.38;;
12768;SDS011;6448;48.916;8.990;2023-03-31T00:32:43;1.67;;;1.00;;
12768;SDS011;6448;48.916;8.990;2023-03-31T00:33:45;1.88;;;1.30;;
12768;SDS011;6448;48.916;8.990;2023-03-31T00:34:46;1.48;;;1.20;;
12768;SDS011;6448;48.916;8.990;2023-03-31T00:35:49;1.73;;;1.17;;
12768;SDS011;6448;48.916;8.990;2023-03-31T00:36:50;1.73;;;1.30;;
12768;SDS011;6448;48.916;8.990;2023-03-31T00:37:55;1.83;;;1.25;;
12768;SDS011;6448;48.916;8.990;2023-03-31T00:38:57;1.45;;;1.30;;
12768;SDS011;6448;48.916;8.990;2023-03-31T00:40:01;1.73;;;1.23;;
12768;SDS011;6448;48.916;8.990;2023-03-31T00:41:07;1.70;;;1.30;;
12768;SDS011;6448;48.916;8.990;2023-03-31T00:42:09;1.48;;;1.20;;
12768;SDS011;6448;48.916;8.990;2023-03-31T00:43:20;2.33;;;1.35;;
12768;SDS011;6448;48.916;8.990;2023-03-31T00:44:28;2.08;;;1.30;;
12768;SDS011;6448;48.916;8.990;2023-03-31T00:45:33;1.58;;;1.20;;
12768;SDS011;6448;48.916;8.990;2023-03-31T00:46:36;1.50;;;1.20;;
12768;SDS011;6448;48.916;8.990;2023-03-31T00:47:42;1.60;;;1.20;;
12768;SDS011;6448;48.916;8.990;2023-03-31T00:48:46;1.67;;;1.10;;
12768;SDS011;6448;48.916;8.990;2023-03-31T00:49:52;1.27;;;1.15;;
12768;SDS011;6448;48.916;8.990;2023-03-31T00:50:56;2.53;;;1.30;;
12768;SDS011;6448;48.916;8.990;2023-03-31T00:52:01;1.60;;;1.20;;
12768;SDS011;6448;48.916;8.990;2023-03-31T00:53:06;1.67;;;1.30;;
12768;SDS011;6448;48.916;8.990;2023-03-31T00:54:11;2.42;;;1.50;;
12768;SDS011;6448;48.916;8.990;2023-03-31T00:55:15;1.73;;;1.20;;
12768;SDS011;6448;48.916;8.990;2023-03-31T00:56:19;2.05;;;1.45;;
12768;SDS011;6448;48.916;8.990;2023-03-31T00:57:22;2.27;;;1.30;;
12768;SDS011;6448;48.916;8.990;2023-03-31T00:58:24;1.70;;;1.13;;
12768;SDS011;6448;48.916;8.990;2023-03-31T00:59:28;2.30;;;1.23;;
12768;SDS011;6448;48.916;8.990;2023-03-31T01:00:31;1.55;;;1.20;;
12768;SDS011;6448;48.916;8.990;2023-03-31T01:01:33;2.13;;;1.30;;
12768;SDS011;6448;48.916;8.990;2023-03-31T01:02:35;1.67;;;1.17;;
12768;SDS011;6448;48.916;8.990;2023-03-31T01:03:40;1.90;;;1.20;;
12768;SDS011;6448;48.916;8.990;2023-03-31T01:04:42;1.83;;;1.33;;
12768;SDS011;6448;48.916;8.990;2023-03-31T01:05:46;2.70;;;1.40;;
12768;SDS011;6448;48.916;8.990;2023-03-31T01:06:51;1.55;;;1.23;;
12768;SDS011;6448;48.916;8.990;2023-03-31T01:07:59;1.77;;;1.25;;
12768;SDS011;6448;48.916;8.990;2023-03-31T01:09:01;1.58;;;1.20;;
12768;SDS011;6448;48.916;8.990;2023-03-31T01:10:12;1.75;;;1.38;;
12768;SDS011;6448;48.916;8.990;2023-03-31T01:11:15;1.65;;;1.25;;
12768;SDS011;6448;48.916;8.990;2023-03-31T01:12:20;1.67;;;1.30;;
12768;SDS011;6448;48.916;8.990;2023-03-31T01:13:24;1.83;;;1.40;;
12768;SDS011;6448;48.916;8.990;2023-03-31T01:14:26;1.95;;;1.40;;
12768;SDS011;6448;48.916;8.990;2023-03-31T01:15:28;2.03;;;1.50;;
12768;SDS011;6448;48.916;8.990;2023-03-31T01:16:29;2.40;;;1.40;;
12768;SDS011;6448;48.916;8.990;2023-03-31T01:17:34;1.80;;;1.30;;
12768;SDS011;6448;48.916;8.990;2023-03-31T01:18:36;1.88;;;1.25;;
12768;SDS011;6448;48.916;8.990;2023-03-31T01:19:43;2.45;;;1.50;;
12768;SDS011;6448;48.916;8.990;2023-03-31T01:23:04;2.00;;;1.30;;
12768;SDS011;6448;48.916;8.990;2023-03-31T01:24:37;2.30;;;1.63;;
12768;SDS011;6448;48.916;8.990;2023-03-31T01:28:00;2.80;;;1.45;;
12768;SDS011;6448;48.916;8.990;2023-03-31T01:29:17;1.75;;;1.30;;
12768;SDS011;6448;48.916;8.990;2023-03-31T01:32:26;1.83;;;1.30;;
12768;SDS011;6448;48.916;8.990;2023-03-31T01:39:03;2.58;;;1.40;;
12768;SDS011;6448;48.916;8.990;2023-03-31T01:40:32;1.60;;;1.20;;
12768;SDS011;6448;48.916;8.990;2023-03-31T01:41:41;1.42;;;1.23;;
12768;SDS011;6448;48.916;8.990;2023-03-31T01:42:51;2.38;;;1.48;;
12768;SDS011;6448;48.916;8.990;2023-03-31T01:43:58;1.85;;;1.48;;
12768;SDS011;6448;48.916;8.990;2023-03-31T01:45:11;2.03;;;1.42;;
12768;SDS011;6448;48.916;8.990;2023-03-31T01:46:19;2.20;;;1.40;;
12768;SDS011;6448;48.916;8.990;2023-03-31T01:47:28;2.00;;;1.33;;
12768;SDS011;6448;48.916;8.990;2023-03-31T01:48:40;2.00;;;1.23;;
12768;SDS011;6448;48.916;8.990;2023-03-31T01:49:50;1.50;;;1.30;;
12768;SDS011;6448;48.916;8.990;2023-03-31T01:50:58;2.50;;;1.60;;
12768;SDS011;6448;48.916;8.990;2023-03-31T01:52:02;2.08;;;1.27;;
12768;SDS011;6448;48.916;8.990;2023-03-31T01:53:10;2.30;;;1.40;;
12768;SDS011;6448;48.916;8.990;2023-03-31T01:54:18;2.10;;;1.40;;
12768;SDS011;6448;48.916;8.990;2023-03-31T01:55:23;2.33;;;1.30;;
12768;SDS011;6448;48.916;8.990;2023-03-31T01:56:31;1.85;;;1.30;;
12768;SDS011;6448;48.916;8.990;2023-03-31T01:57:36;1.98;;;1.20;;
12768;SDS011;6448;48.916;8.990;2023-03-31T01:58:40;1.83;;;1.40;;
12768;SDS011;6448;48.916;8.990;2023-03-31T01:59:51;2.17;;;1.50;;
12768;SDS011;6448;48.916;8.990;2023-03-31T02:00:58;2.30;;;1.27;;
12768;SDS011;6448;48.916;8.990;2023-03-31T02:02:04;2.13;;;1.40;;
12768;SDS011;6448;48.916;8.990;2023-03-31T02:03:10;1.52;;;1.27;;
12768;SDS011;6448;48.916;8.990;2023-03-31T02:04:17;2.47;;;1.30;;
12768;SDS011;6448;48.916;8.990;2023-03-31T02:05:23;2.00;;;1.35;;
12768;SDS011;6448;48.916;8.990;2023-03-31T02:06:28;1.80;;;1.20;;
12768;SDS011;6448;48.916;8.990;2023-03-31T02:07:34;1.90;;;1.30;;
12768;SDS011;6448;48.916;8.990;2023-03-31T02:08:42;2.30;;;1.40;;
12768;SDS011;6448;48.916;8.990;2023-03-31T02:09:48;1.55;;;1.30;;
12768;SDS011;6448;48.916;8.990;2023-03-31T02:10:53;2.00;;;1.35;;
12768;SDS011;6448;48.916;8.990;2023-03-31T02:11:56;3.10;;;1.40;;
12768;SDS011;6448;48.916;8.990;2023-03-31T02:12:59;2.13;;;1.60;;
12768;SDS011;6448;48.916;8.990;2023-03-31T02:14:01;2.60;;;1.50;;
12768;SDS011;6448;48.916;8.990;2023-03-31T02:15:06;2.20;;;1.38;;
12768;SDS011;6448;48.916;8.990;2023-03-31T02:16:11;1.73;;;1.40;;
12768;SDS011;6448;48.916;8.990;2023-03-31T02:17:19;1.92;;;1.20;;
12768;SDS011;6448;48.916;8.990;2023-03-31T02:18:29;1.65;;;1.10;;
12768;SDS011;6448;48.916;8.990;2023-03-31T02:19:37;1.48;;;1.20;;
12768;SDS011;6448;48.916;8.990;2023-03-31T02:20:41;1.77;;;1.30;;
12768;SDS011;6448;48.916;8.990;2023-03-31T02:21:47;1.50;;;1.20;;
12768;SDS011;6448;48.916;8.990;2023-03-31T02:22:49;1.35;;;1.00;;
12768;SDS011;6448;48.916;8.990;2023-03-31T02:23:54;1.75;;;1.25;;
12768;SDS011;6448;48.916;8.990;2023-03-31T02:24:57;1.95;;;1.20;;
12768;SDS011;6448;48.916;8.990;2023-03-31T02:26:03;1.38;;;1.15;;
12768;SDS011;6448;48.916;8.990;2023-03-31T02:27:11;1.55;;;1.10;;
12768;SDS011;6448;48.916;8.990;2023-03-31T02:28:20;2.22;;;1.30;;
12768;SDS011;6448;48.916;8.990;2023-03-31T02:29:22;1.60;;;1.10;;
12768;SDS011;6448;48.916;8.990;2023-03-31T02:30:26;1.53;;;1.20;;
12768;SDS011;6448;48.916;8.990;2023-03-31T02:31:33;1.20;;;1.10;;
12768;SDS011;6448;48.916;8.990;2023-03-31T02:32:44;1.33;;;1.00;;
12768;SDS011;6448;48.916;8.990;2023-03-31T02:33:46;1.73;;;1.27;;
12768;SDS011;6448;48.916;8.990;2023-03-31T02:34:48;1.60;;;1.10;;
12768;SDS011;6448;48.916;8.990;2023-03-31T02:35:49;1.73;;;1.00;;
12768;SDS011;6448;48.916;8.990;2023-03-31T02:36:51;2.53;;;1.25;;
12768;SDS011;6448;48.916;8.990;2023-03-31T02:37:53;1.17;;;1.02;;
12768;SDS011;6448;48.916;8.990;2023-03-31T02:38:54;1.45;;;1.20;;
12768;SDS011;6448;48.916;8.990;2023-03-31T02:40:02;1.42;;;1.20;;
12768;SDS011;6448;48.916;8.990;2023-03-31T02:41:09;1.10;;;1.00;;
12768;SDS011;6448;48.916;8.990;2023-03-31T02:42:12;1.40;;;1.10;;
12768;SDS011;6448;48.916;8.990;2023-03-31T02:43:14;1.50;;;1.10;;
12768;SDS011;6448;48.916;8.990;2023-03-31T02:44:16;1.67;;;1.20;;
12768;SDS011;6448;48.916;8.990;2023-03-31T02:46:51;1.52;;;1.20;;
12768;SDS011;6448;48.916;8.990;2023-03-31T02:47:52;1.50;;;1.20;;
12768;SDS011;6448;48.916;8.990;2023-03-31T02:48:55;1.73;;;1.10;;
12768;SDS011;6448;48.916;8.990;2023-03-31T02:49:58;1.50;;;1.20;;
12768;SDS011;6448;48.916;8.990;2023-03-31T02:51:09;1.65;;;1.20;;
12768;SDS011;6448;48.916;8.990;2023-03-31T02:52:27;1.70;;;1.15;;
12768;SDS011;6448;48.916;8.990;2023-03-31T02:53:37;1.63;;;1.30;;
12768;SDS011;6448;48.916;8.990;2023-03-31T02:54:51;1.10;;;1.00;;
12768;SDS011;6448;48.916;8.990;2023-03-31T02:56:10;1.92;;;1.27;;
12768;SDS011;6448;48.916;8.990;2023-03-31T02:57:35;2.45;;;1.10;;
12768;SDS011;6448;48.916;8.990;2023-03-31T02:58:56;1.40;;;1.20;;
12768;SDS011;6448;48.916;8.990;2023-03-31T03:00:08;1.27;;;1.08;;
12768;SDS011;6448;48.916;8.990;2023-03-31T03:01:25;1.77;;;1.20;;
12768;SDS011;6448;48.916;8.990;2023-03-31T03:02:40;1.73;;;1.20;;
12768;SDS011;6448;48.916;8.990;2023-03-31T03:03:55;1.38;;;1.00;;
12768;SDS011;6448;48.916;8.990;2023-03-31T03:05:13;1.33;;;0.90;;
12768;SDS011;6448;48.916;8.990;2023-03-31T03:06:41;1.10;;;0.95;;
12768;SDS011;6448;48.916;8.990;2023-03-31T03:07:57;1.30;;;1.10;;
12768;SDS011;6448;48.916;8.990;2023-03-31T03:09:07;1.60;;;1.10;;
12768;SDS011;6448;48.916;8.990;2023-03-31T03:10:19;1.95;;;1.17;;
12768;SDS011;6448;48.916;8.990;2023-03-31T03:11:31;1.73;;;1.20;;
12768;SDS011;6448;48.916;8.990;2023-03-31T03:12:41;1.77;;;1.30;;
12768;SDS011;6448;48.916;8.990;2023-03-31T03:13:49;2.13;;;1.17;;
12768;SDS011;6448;48.916;8.990;2023-03-31T03:14:56;1.58;;;1.13;;
12768;SDS011;6448;48.916;8.990;2023-03-31T03:16:03;1.48;;;1.30;;
12768;SDS011;6448;48.916;8.990;2023-03-31T03:17:14;1.95;;;1.33;;
12768;SDS011;6448;48.916;8.990;2023-03-31T03:18:20;1.50;;;1.35;;
12768;SDS011;6448;48.916;8.990;2023-03-31T03:19:22;1.58;;;1.10;;
12768;SDS011;6448;48.916;8.990;2023-03-31T03:20:23;1.92;;;1.40;;
12768;SDS011;6448;48.916;8.990;2023-03-31T03:21:25;2.40;;;1.40;;
12768;SDS011;6448;48.916;8.990;2023-03-31T03:22:27;1.73;;;1.30;;
12768;SDS011;6448;48.916;8.990;2023-03-31T03:23:28;2.03;;;1.40;;
12768;SDS011;6448;48.916;8.990;2023-03-31T03:24:30;1.90;;;1.30;;
12768;SDS011;6448;48.916;8.990;2023-03-31T03:25:33;1.67;;;1.30;;
12768;SDS011;6448;48.916;8.990;2023-03-31T03:26:34;1.60;;;1.33;;
12768;SDS011;6448;48.916;8.990;2023-03-31T03:27:36;2.45;;;1.50;;
12768;SDS011;6448;48.916;8.990;2023-03-31T03:28:38;1.70;;;1.30;;
12768;SDS011;6448;48.916;8.990;2023-03-31T03:29:40;1.80;;;1.30;;
12768;SDS011;6448;48.916;8.990;2023-03-31T03:30:41;2.17;;;1.40;;
12768;SDS011;6448;48.916;8.990;2023-03-31T03:31:43;2.10;;;1.42;;
12768;SDS011;6448;48.916;8.990;2023-03-31T03:32:44;2.10;;;1.60;;
12768;SDS011;6448;48.916;8.990;2023-03-31T03:33:46;2.17;;;1.50;;
12768;SDS011;6448;48.916;8.990;2023-03-31T03:34:46;1.50;;;1.27;;
12768;SDS011;6448;48.916;8.990;2023-03-31T03:35:48;1.70;;;1.40;;
12768;SDS011;6448;48.916;8.990;2023-03-31T03:36:49;2.40;;;1.70;;
12768;SDS011;6448;48.916;8.990;2023-03-31T03:37:51;1.80;;;1.42;;
12768;SDS011;6448;48.916;8.990;2023-03-31T03:38:52;2.13;;;1.50;;
12768;SDS011;6448;48.916;8.990;2023-03-31T03:39:54;1.88;;;1.58;;
12768;SDS011;6448;48.916;8.990;2023-03-31T03:40:55;1.70;;;1.50;;
12768;SDS011;6448;48.916;8.990;2023-03-31T03:41:56;1.98;;;1.42;;
12768;SDS011;6448;48.916;8.990;2023-03-31T03:42:57;1.75;;;1.35;;
12768;SDS011;6448;48.916;8.990;2023-03-31T03:44:00;1.60;;;1.40;;
12768;SDS011;6448;48.916;8.990;2023-03-31T03:45:01;2.35;;;1.70;;
12768;SDS011;6448;48.916;8.990;2023-03-31T03:46:03;2.10;;;1.50;;
12768;SDS011;6448;48.916;8.990;2023-03-31T03:47:04;2.37;;;1.50;;
12768;SDS011;6448;48.916;8.990;2023-03-31T03:48:06;1.98;;;1.58;;
12768;SDS011;6448;48.916;8.990;2023-03-31T03:49:08;1.80;;;1.50;;
12768;SDS011;6448;48.916;8.990;2023-03-31T03:50:09;1.80;;;1.60;;
12768;SDS011;6448;48.916;8.990;2023-03-31T03:51:12;1.67;;;1.40;;
12768;SDS011;6448;48.916;8.990;2023-03-31T03:52:13;1.55;;;1.40;;
12768;SDS011;6448;48.916;8.990;2023-03-31T03:53:15;1.70;;;1.55;;
12768;SDS011;6448;48.916;8.990;2023-03-31T03:54:16;3.03;;;1.57;;
12768;SDS011;6448;48.916;8.990;2023-03-31T03:55:17;2.05;;;1.50;;
12768;SDS011;6448;48.916;8.990;2023-03-31T03:56:18;1.70;;;1.50;;
12768;SDS011;6448;48.916;8.990;2023-03-31T03:57:21;1.85;;;1.60;;
12768;SDS011;6448;48.916;8.990;2023-03-31T03:58:21;2.35;;;1.67;;
12768;SDS011;6448;48.916;8.990;2023-03-31T03:59:24;2.20;;;1.55;;
12768;SDS011;6448;48.916;8.990;2023-03-31T04:00:25;1.88;;;1.60;;
12768;SDS011;6448;48.916;8.990;2023-03-31T04:01:27;1.75;;;1.45;;
12768;SDS011;6448;48.916;8.990;2023-03-31T04:02:28;1.80;;;1.40;;
12768;SDS011;6448;48.916;8.990;2023-03-31T04:03:30;2.08;;;1.77;;
12768;SDS011;6448;48.916;8.990;2023-03-31T04:04:31;2.42;;;1.63;;
12768;SDS011;6448;48.916;8.990;2023-03-31T04:05:32;1.80;;;1.40;;
12768;SDS011;6448;48.916;8.990;2023-03-31T04:06:33;1.70;;;1.48;;
12768;SDS011;6448;48.916;8.990;2023-03-31T04:07:35;2.22;;;1.67;;
12768;SDS011;6448;48.916;8.990;2023-03-31T04:08:36;1.83;;;1.60;;
12768;SDS011;6448;48.916;8.990;2023-03-31T04:09:38;2.17;;;1.48;;
12768;SDS011;6448;48.916;8.990;2023-03-31T04:10:42;2.10;;;1.55;;
12768;SDS011;6448;48.916;8.990;2023-03-31T04:11:44;2.63;;;1.70;;
12768;SDS011;6448;48.916;8.990;2023-03-31T04:12:45;1.50;;;1.40;;
12768;SDS011;6448;48.916;8.990;2023-03-31T04:13:46;1.47;;;1.37;;
12768;SDS011;6448;48.916;8.990;2023-03-31T04:14:49;1.53;;;1.43;;
12768;SDS011;6448;48.916;8.990;2023-03-31T04:15:50;2.10;;;1.60;;
12768;SDS011;6448;48.916;8.990;2023-03-31T04:16:51;1.80;;;1.40;;
12768;SDS011;6448;48.916;8.990;2023-03-31T04:17:55;1.73;;;1.40;;
12768;SDS011;6448;48.916;8.990;2023-03-31T04:18:57;2.43;;;1.60;;
12768;SDS011;6448;48.916;8.990;2023-03-31T04:20:03;1.60;;;1.40;;
12768;SDS011;6448;48.916;8.990;2023-03-31T04:21:08;2.00;;;1.50;;
12768;SDS011;6448;48.916;8.990;2023-03-31T04:22:11;1.83;;;1.60;;
12768;SDS011;6448;48.916;8.990;2023-03-31T04:23:14;2.58;;;1.50;;
12768;SDS011;6448;48.916;8.990;2023-03-31T04:24:15;1.40;;;1.30;;
12768;SDS011;6448;48.916;8.990;2023-03-31T04:25:20;1.77;;;1.50;;
12768;SDS011;6448;48.916;8.990;2023-03-31T04:26:21;1.98;;;1.60;;
12768;SDS011;6448;48.916;8.990;2023-03-31T04:27:25;2.03;;;1.70;;
12768;SDS011;6448;48.916;8.990;2023-03-31T04:28:26;1.50;;;1.40;;
12768;SDS011;6448;48.916;8.990;2023-03-31T04:29:33;1.63;;;1.38;;
12768;SDS011;6448;48.916;8.990;2023-03-31T04:30:37;1.55;;;1.40;;
12768;SDS011;6448;48.916;8.990;2023-03-31T04:31:39;1.50;;;1.40;;
12768;SDS011;6448;48.916;8.990;2023-03-31T04:32:41;1.77;;;1.40;;
12768;SDS011;6448;48.916;8.990;2023-03-31T04:33:43;2.20;;;1.50;;
12768;SDS011;6448;48.916;8.990;2023-03-31T04:34:45;1.83;;;1.40;;
12768;SDS011;6448;48.916;8.990;2023-03-31T04:35:47;1.80;;;1.33;;
12768;SDS011;6448;48.916;8.990;2023-03-31T04:36:48;1.95;;;1.60;;
12768;SDS011;6448;48.916;8.990;2023-03-31T04:37:50;2.08;;;1.52;;
12768;SDS011;6448;48.916;8.990;2023-03-31T04:38:58;1.65;;;1.40;;
12768;SDS011;6448;48.916;8.990;2023-03-31T04:40:00;1.77;;;1.45;;
12768;SDS011;6448;48.916;8.990;2023-03-31T04:41:08;2.20;;;1.60;;
12768;SDS011;6448;48.916;8.990;2023-03-31T04:42:10;2.33;;;1.80;;
12768;SDS011;6448;48.916;8.990;2023-03-31T04:43:11;2.20;;;1.50;;
12768;SDS011;6448;48.916;8.990;2023-03-31T04:44:13;2.00;;;1.60;;
12768;SDS011;6448;48.916;8.990;2023-03-31T04:45:14;2.42;;;1.77;;
12768;SDS011;6448;48.916;8.990;2023-03-31T04:46:17;2.42;;;1.55;;
12768;SDS011;6448;48.916;8.990;2023-03-31T04:47:18;1.60;;;1.50;;
12768;SDS011;6448;48.916;8.990;2023-03-31T04:48:19;1.67;;;1.52;;
12768;SDS011;6448;48.916;8.990;2023-03-31T04:49:20;1.42;;;1.33;;
12768;SDS011;6448;48.916;8.990;2023-03-31T04:50:22;2.00;;;1.50;;
12768;SDS011;6448;48.916;8.990;2023-03-31T04:51:23;2.35;;;1.70;;
12768;SDS011;6448;48.916;8.990;2023-03-31T04:52:25;1.88;;;1.60;;
12768;SDS011;6448;48.916;8.990;2023-03-31T04:53:25;1.92;;;1.40;;
12768;SDS011;6448;48.916;8.990;2023-03-31T04:54:27;2.33;;;1.80;;
12768;SDS011;6448;48.916;8.990;2023-03-31T04:55:28;2.13;;;1.70;;
12768;SDS011;6448;48.916;8.990;2023-03-31T04:56:30;1.95;;;1.60;;
12768;SDS011;6448;48.916;8.990;2023-03-31T04:57:31;1.90;;;1.70;;
12768;SDS011;6448;48.916;8.990;2023-03-31T04:58:32;2.75;;;1.90;;
12768;SDS011;6448;48.916;8.990;2023-03-31T04:59:33;1.75;;;1.65;;
12768;SDS011;6448;48.916;8.990;2023-03-31T05:00:35;1.73;;;1.55;;
12768;SDS011;6448;48.916;8.990;2023-03-31T05:01:37;3.08;;;1.67;;
12768;SDS011;6448;48.916;8.990;2023-03-31T05:02:44;1.50;;;1.40;;
12768;SDS011;6448;48.916;8.990;2023-03-31T05:03:45;2.03;;;1.80;;
12768;SDS011;6448;48.916;8.990;2023-03-31T05:04:48;2.17;;;1.70;;
12768;SDS011;6448;48.916;8.990;2023-03-31T05:05:48;1.97;;;1.43;;
12768;SDS011;6448;48.916;8.990;2023-03-31T05:06:50;2.08;;;1.70;;
12768;SDS011;6448;48.916;8.990;2023-03-31T05:07:51;2.33;;;1.73;;
12768;SDS011;6448;48.916;8.990;2023-03-31T05:08:53;1.52;;;1.42;;
12768;SDS011;6448;48.916;8.990;2023-03-31T05:09:54;2.15;;;1.80;;
12768;SDS011;6448;48.916;8.990;2023-03-31T05:10:55;2.22;;;1.70;;
12768;SDS011;6448;48.916;8.990;2023-03-31T05:11:57;2.22;;;1.70;;
12768;SDS011;6448;48.916;8.990;2023-03-31T05:12:58;1.60;;;1.47;;
12768;SDS011;6448;48.916;8.990;2023-03-31T05:13:59;2.10;;;1.80;;
12768;SDS011;6448;48.916;8.990;2023-03-31T05:15:01;2.08;;;1.60;;
12768;SDS011;6448;48.916;8.990;2023-03-31T05:16:05;2.10;;;1.70;;
12768;SDS011;6448;48.916;8.990;2023-03-31T05:17:09;2.40;;;1.73;;
12768;SDS011;6448;48.916;8.990;2023-03-31T05:18:10;2.40;;;1.70;;
12768;SDS011;6448;48.916;8.990;2023-03-31T05:19:12;2.55;;;1.70;;
12768;SDS011;6448;48.916;8.990;2023-03-31T05:20:13;2.65;;;1.83;;
12768;SDS011;6448;48.916;8.990;2023-03-31T05:21:15;2.22;;;1.75;;
12768;SDS011;6448;48.916;8.990;2023-03-31T05:22:17;3.13;;;1.80;;
12768;SDS011;6448;48.916;8.990;2023-03-31T05:23:19;2.75;;;2.00;;
12768;SDS011;6448;48.916;8.990;2023-03-31T05:24:21;3.47;;;2.00;;
12768;SDS011;6448;48.916;8.990;2023-03-31T05:25:22;3.70;;;2.35;;
12768;SDS011;6448;48.916;8.990;2023-03-31T05:26:24;2.33;;;1.90;;
12768;SDS011;6448;48.916;8.990;2023-03-31T05:27:25;2.30;;;1.90;;
12768;SDS011;6448;48.916;8.990;2023-03-31T05:29:31;2.53;;;2.13;;
12768;SDS011;6448;48.916;8.990;2023-03-31T05:30:32;2.63;;;1.98;;
12768;SDS011;6448;48.916;8.990;2023-03-31T05:31:33;2.92;;;2.00;;
12768;SDS011;6448;48.916;8.990;2023-03-31T05:32:37;3.28;;;2.10;;
12768;SDS011;6448;48.916;8.990;2023-03-31T05:33:37;2.60;;;2.15;;
12768;SDS011;6448;48.916;8.990;2023-03-31T05:34:40;2.88;;;2.00;;
12768;SDS011;6448;48.916;8.990;2023-03-31T05:35:42;2.33;;;2.00;;
12768;SDS011;6448;48.916;8.990;2023-03-31T05:36:45;2.95;;;2.10;;
12768;SDS011;6448;48.916;8.990;2023-03-31T05:37:47;2.25;;;2.00;;
12768;SDS011;6448;48.916;8.990;2023-03-31T05:38:49;2.53;;;2.00;;
12768;SDS011;6448;48.916;8.990;2023-03-31T05:39:51;2.30;;;2.05;;
12768;SDS011;6448;48.916;8.990;2023-03-31T05:40:53;2.78;;;2.20;;
12768;SDS011;6448;48.916;8.990;2023-03-31T05:41:55;2.50;;;2.15;;
12768;SDS011;6448;48.916;8.990;2023-03-31T05:42:56;2.50;;;2.07;;
12768;SDS011;6448;48.916;8.990;2023-03-31T05:43:57;3.17;;;2.37;;
12768;SDS011;6448;48.916;8.990;2023-03-31T05:44:59;3.00;;;2.20;;
12768;SDS011;6448;48.916;8.990;2023-03-31T05:46:02;2.97;;;2.30;;
12768;SDS011;6448;48.916;8.990;2023-03-31T05:47:05;2.33;;;2.10;;
12768;SDS011;6448;48.916;8.990;2023-03-31T05:48:08;2.88;;;2.20;;
12768;SDS011;6448;48.916;8.990;2023-03-31T05:49:09;3.40;;;2.33;;
12768;SDS011;6448;48.916;8.990;2023-03-31T05:50:11;3.03;;;2.00;;
12768;SDS011;6448;48.916;8.990;2023-03-31T05:51:12;2.63;;;2.00;;
12768;SDS011;6448;48.916;8.990;2023-03-31T05:52:14;3.15;;;2.10;;
12768;SDS011;6448;48.916;8.990;2023-03-31T05:53:15;3.17;;;2.20;;
12768;SDS011;6448;48.916;8.990;2023-03-31T05:54:26;2.60;;;2.20;;
12768;SDS011;6448;48.916;8.990;2023-03-31T05:55:37;2.90;;;2.05;;
12768;SDS011;6448;48.916;8.990;2023-03-31T05:56:51;2.88;;;2.08;;
12768;SDS011;6448;48.916;8.990;2023-03-31T05:58:11;3.10;;;2.28;;
12768;SDS011;6448;48.916;8.990;2023-03-31T05:59:37;2.88;;;1.98;;
12768;SDS011;6448;48.916;8.990;2023-03-31T06:00:49;2.53;;;2.13;;
12768;SDS011;6448;48.916;8.990;2023-03-31T06:02:12;3.15;;;2.35;;
12768;SDS011;6448;48.916;8.990;2023-03-31T06:03:16;3.38;;;2.45;;
12768;SDS011;6448;48.916;8.990;2023-03-31T06:04:20;2.72;;;2.22;;
12768;SDS011;6448;48.916;8.990;2023-03-31T06:05:29;2.45;;;2.10;;
12768;SDS011;6448;48.916;8.990;2023-03-31T06:06:34;2.95;;;2.00;;
12768;SDS011;6448;48.916;8.990;2023-03-31T06:07:37;2.60;;;2.13;;
12768;SDS011;6448;48.916;8.990;2023-03-31T06:08:44;2.33;;;1.90;;
12768;SDS011;6448;48.916;8.990;2023-03-31T06:09:54;2.17;;;1.95;;
12768;SDS011;6448;48.916;8.990;2023-03-31T06:11:04;2.30;;;2.10;;
12768;SDS011;6448;48.916;8.990;2023-03-31T06:12:09;2.40;;;2.20;;
12768;SDS011;6448;48.916;8.990;2023-03-31T06:13:17;2.67;;;2.17;;
12768;SDS011;6448;48.916;8.990;2023-03-31T06:14:26;2.80;;;2.30;;
12768;SDS011;6448;48.916;8.990;2023-03-31T06:15:33;2.50;;;2.08;;
12768;SDS011;6448;48.916;8.990;2023-03-31T06:16:44;2.95;;;2.40;;
12768;SDS011;6448;48.916;8.990;2023-03-31T06:17:46;2.78;;;2.15;;
12768;SDS011;6448;48.916;8.990;2023-03-31T06:18:50;2.70;;;2.20;;
12768;SDS011;6448;48.916;8.990;2023-03-31T06:19:52;2.33;;;2.13;;
12768;SDS011;6448;48.916;8.990;2023-03-31T06:20:55;2.55;;;2.10;;
12768;SDS011;6448;48.916;8.990;2023-03-31T06:21:58;3.20;;;2.30;;
12768;SDS011;6448;48.916;8.990;2023-03-31T06:25:20;3.27;;;2.30;;
12768;SDS011;6448;48.916;8.990;2023-03-31T06:26:25;2.80;;;2.17;;
12768;SDS011;6448;48.916;8.990;2023-03-31T06:27:26;3.45;;;2.58;;
12768;SDS011;6448;48.916;8.990;2023-03-31T06:28:28;4.07;;;2.28;;
12768;SDS011;6448;48.916;8.990;2023-03-31T06:29:29;2.65;;;2.15;;
12768;SDS011;6448;48.916;8.990;2023-03-31T06:30:31;3.05;;;2.40;;
12768;SDS011;6448;48.916;8.990;2023-03-31T06:31:32;3.28;;;2.30;;
12768;SDS011;6448;48.916;8.990;2023-03-31T06:32:33;2.00;;;1.83;;
12768;SDS011;6448;48.916;8.990;2023-03-31T06:33:34;2.85;;;2.20;;
12768;SDS011;6448;48.916;8.990;2023-03-31T06:34:38;2.90;;;2.10;;
12768;SDS011;6448;48.916;8.990;2023-03-31T06:35:40;3.17;;;2.20;;
12768;SDS011;6448;48.916;8.990;2023-03-31T06:36:41;3.05;;;2.30;;
12768;SDS011;6448;48.916;8.990;2023-03-31T06:37:42;3.00;;;2.30;;
12768;SDS011;6448;48.916;8.990;2023-03-31T06:38:43;2.42;;;2.10;;
12768;SDS011;6448;48.916;8.990;2023-03-31T06:39:45;2.90;;;2.20;;
12768;SDS011;6448;48.916;8.990;2023-03-31T06:40:46;2.80;;;2.15;;
12768;SDS011;6448;48.916;8.990;2023-03-31T06:41:48;2.22;;;1.90;;
12768;SDS011;6448;48.916;8.990;2023-03-31T06:42:59;4.32;;;2.50;;
12768;SDS011;6448;48.916;8.990;2023-03-31T06:44:02;2.60;;;2.13;;
12768;SDS011;6448;48.916;8.990;2023-03-31T06:45:04;3.13;;;2.37;;
12768;SDS011;6448;48.916;8.990;2023-03-31T06:46:05;3.20;;;2.40;;
12768;SDS011;6448;48.916;8.990;2023-03-31T06:47:07;3.50;;;2.80;;
12768;SDS011;6448;48.916;8.990;2023-03-31T06:48:08;3.20;;;2.83;;
12768;SDS011;6448;48.916;8.990;2023-03-31T06:49:10;3.50;;;3.00;;
12768;SDS011;6448;48.916;8.990;2023-03-31T06:50:14;4.50;;;3.00;;